sensor_id;sensor_type;location;lat;lon;timestamp;P1;durP1;ratioP1;P2;durP2;ratioP2
53287;SDS011;39172;45.550;12.072;2023-08-07T00:03:49;0.73;;;0.30;;
53287;SDS011;39172;45.550;12.072;2023-08-07T00:09:50;0.70;;;0.40;;
53287;SDS011;39172;45.550;12.072;2023-08-07T00:15:51;0.60;;;0.30;;
53287;SDS011;39172;45.550;12.072;2023-08-07T00:21:52;0.35;;;0.20;;
53287;SDS011;39172;45.550;12.072;2023-08-07T00:27:53;0.60;;;0.20;;
53287;SDS011;39172;45.550;12.072;2023-08-07T00:33:54;0.22;;;0.20;;
53287;SDS011;39172;45.550;12.072;2023-08-07T00:39:57;0.30;;;0.20;;
53287;SDS011;39172;45.550;12.072;2023-08-07T00:45:58;0.50;;;0.38;;
53287;SDS011;39172;45.550;12.072;2023-08-07T00:51:59;0.25;;;0.20;;
53287;SDS011;39172;45.550;12.072;2023-08-07T00:58:00;0.32;;;0.20;;
53287;SDS011;39172;45.550;12.072;2023-08-07T01:04:01;0.88;;;0.40;;
53287;SDS011;39172;45.550;12.072;2023-08-07T01:10:02;0.43;;;0.30;;
53287;SDS011;39172;45.550;12.072;2023-08-07T01:16:06;0.70;;;0.30;;
53287;SDS011;39172;45.550;12.072;2023-08-07T01:22:14;0.30;;;0.20;;
53287;SDS011;39172;45.550;12.072;2023-08-07T01:28:24;0.30;;;0.30;;
53287;SDS011;39172;45.550;12.072;2023-08-07T01:34:28;0.57;;;0.40;;
53287;SDS011;39172;45.550;12.072;2023-08-07T01:40:33;0.73;;;0.47;;
53287;SDS011;39172;45.550;12.072;2023-08-07T01:46:35;0.60;;;0.40;;
53287;SDS011;39172;45.550;12.072;2023-08-07T01:52:38;0.50;;;0.40;;
53287;SDS011;39172;45.550;12.072;2023-08-07T01:58:40;1.15;;;0.40;;
53287;SDS011;39172;45.550;12.072;2023-08-07T02:04:41;0.77;;;0.40;;
53287;SDS011;39172;45.550;12.072;2023-08-07T02:10:43;0.68;;;0.40;;
53287;SDS011;39172;45.550;12.072;2023-08-07T02:16:44;0.45;;;0.30;;
53287;SDS011;39172;45.550;12.072;2023-08-07T02:22:45;0.77;;;0.55;;
53287;SDS011;39172;45.550;12.072;2023-08-07T02:28:47;0.50;;;0.40;;
53287;SDS011;39172;45.550;12.072;2023-08-07T02:34:48;0.80;;;0.40;;
53287;SDS011;39172;45.550;12.072;2023-08-07T02:40:49;0.93;;;0.40;;
53287;SDS011;39172;45.550;12.072;2023-08-07T02:46:49;0.70;;;0.40;;
53287;SDS011;39172;45.550;12.072;2023-08-07T02:52:50;0.50;;;0.40;;
53287;SDS011;39172;45.550;12.072;2023-08-07T02:58:51;1.05;;;0.40;;
53287;SDS011;39172;45.550;12.072;2023-08-07T03:04:52;0.38;;;0.30;;
53287;SDS011;39172;45.550;12.072;2023-08-07T03:10:54;0.40;;;0.38;;
53287;SDS011;39172;45.550;12.072;2023-08-07T03:16:58;0.35;;;0.30;;
53287;SDS011;39172;45.550;12.072;2023-08-07T03:23:01;0.47;;;0.30;;
53287;SDS011;39172;45.550;12.072;2023-08-07T03:29:02;0.40;;;0.30;;
53287;SDS011;39172;45.550;12.072;2023-08-07T03:35:04;1.15;;;0.40;;
53287;SDS011;39172;45.550;12.072;2023-08-07T03:41:05;0.43;;;0.30;;
53287;SDS011;39172;45.550;12.072;2023-08-07T03:47:06;0.60;;;0.40;;
53287;SDS011;39172;45.550;12.072;2023-08-07T03:53:08;0.40;;;0.38;;
53287;SDS011;39172;45.550;12.072;2023-08-07T03:59:15;0.85;;;0.45;;
53287;SDS011;39172;45.550;12.072;2023-08-07T04:05:17;1.13;;;0.30;;
53287;SDS011;39172;45.550;12.072;2023-08-07T04:11:18;0.52;;;0.40;;
53287;SDS011;39172;45.550;12.072;2023-08-07T04:17:19;0.50;;;0.40;;
53287;SDS011;39172;45.550;12.072;2023-08-07T04:23:21;1.25;;;0.55;;
53287;SDS011;39172;45.550;12.072;2023-08-07T04:29:22;0.80;;;0.60;;
53287;SDS011;39172;45.550;12.072;2023-08-07T04:35:23;1.05;;;0.60;;
53287;SDS011;39172;45.550;12.072;2023-08-07T04:41:24;1.02;;;0.60;;
53287;SDS011;39172;45.550;12.072;2023-08-07T04:47:25;0.93;;;0.52;;
53287;SDS011;39172;45.550;12.072;2023-08-07T04:53:26;0.70;;;0.45;;
53287;SDS011;39172;45.550;12.072;2023-08-07T04:59:27;0.60;;;0.40;;
53287;SDS011;39172;45.550;12.072;2023-08-07T05:05:31;0.57;;;0.40;;
53287;SDS011;39172;45.550;12.072;2023-08-07T05:11:32;0.98;;;0.52;;
53287;SDS011;39172;45.550;12.072;2023-08-07T05:17:34;0.80;;;0.52;;
53287;SDS011;39172;45.550;12.072;2023-08-07T05:23:36;0.70;;;0.50;;
53287;SDS011;39172;45.550;12.072;2023-08-07T05:29:37;0.70;;;0.60;;
53287;SDS011;39172;45.550;12.072;2023-08-07T05:35:44;0.70;;;0.40;;
53287;SDS011;39172;45.550;12.072;2023-08-07T05:41:46;0.77;;;0.40;;
53287;SDS011;39172;45.550;12.072;2023-08-07T05:47:47;0.45;;;0.30;;
53287;SDS011;39172;45.550;12.072;2023-08-07T05:53:48;0.50;;;0.40;;
53287;SDS011;39172;45.550;12.072;2023-08-07T05:59:49;1.30;;;0.60;;
53287;SDS011;39172;45.550;12.072;2023-08-07T06:05:50;0.60;;;0.50;;
53287;SDS011;39172;45.550;12.072;2023-08-07T06:11:54;0.50;;;0.40;;
53287;SDS011;39172;45.550;12.072;2023-08-07T06:17:55;0.70;;;0.50;;
53287;SDS011;39172;45.550;12.072;2023-08-07T06:23:56;0.80;;;0.40;;
53287;SDS011;39172;45.550;12.072;2023-08-07T06:29:57;0.73;;;0.45;;
53287;SDS011;39172;45.550;12.072;2023-08-07T06:36:00;1.48;;;0.47;;
53287;SDS011;39172;45.550;12.072;2023-08-07T06:42:01;1.15;;;0.60;;
53287;SDS011;39172;45.550;12.072;2023-08-07T06:48:08;0.50;;;0.40;;
53287;SDS011;39172;45.550;12.072;2023-08-07T06:54:12;0.50;;;0.30;;
53287;SDS011;39172;45.550;12.072;2023-08-07T07:00:14;0.70;;;0.40;;
53287;SDS011;39172;45.550;12.072;2023-08-07T07:06:18;0.50;;;0.30;;
53287;SDS011;39172;45.550;12.072;2023-08-07T07:12:21;1.15;;;0.50;;
53287;SDS011;39172;45.550;12.072;2023-08-07T07:18:22;0.80;;;0.40;;
53287;SDS011;39172;45.550;12.072;2023-08-07T07:24:23;0.52;;;0.38;;
53287;SDS011;39172;45.550;12.072;2023-08-07T07:30:24;0.73;;;0.40;;
53287;SDS011;39172;45.550;12.072;2023-08-07T07:36:24;0.40;;;0.30;;
53287;SDS011;39172;45.550;12.072;2023-08-07T07:42:26;0.55;;;0.40;;
53287;SDS011;39172;45.550;12.072;2023-08-07T07:48:27;0.50;;;0.40;;
53287;SDS011;39172;45.550;12.072;2023-08-07T07:54:28;0.60;;;0.30;;
53287;SDS011;39172;45.550;12.072;2023-08-07T08:00:30;0.95;;;0.50;;
53287;SDS011;39172;45.550;12.072;2023-08-07T08:06:31;0.70;;;0.30;;
53287;SDS011;39172;45.550;12.072;2023-08-07T08:12:32;0.82;;;0.50;;
53287;SDS011;39172;45.550;12.072;2023-08-07T08:18:33;1.08;;;0.50;;
53287;SDS011;39172;45.550;12.072;2023-08-07T08:24:34;0.50;;;0.30;;
53287;SDS011;39172;45.550;12.072;2023-08-07T08:30:36;0.65;;;0.40;;
53287;SDS011;39172;45.550;12.072;2023-08-07T08:36:38;0.45;;;0.40;;
53287;SDS011;39172;45.550;12.072;2023-08-07T08:42:39;4.22;;;1.00;;
53287;SDS011;39172;45.550;12.072;2023-08-07T08:48:40;4.88;;;0.90;;
53287;SDS011;39172;45.550;12.072;2023-08-07T08:54:43;4.82;;;0.75;;
53287;SDS011;39172;45.550;12.072;2023-08-07T09:00:44;2.13;;;0.70;;
53287;SDS011;39172;45.550;12.072;2023-08-07T09:06:46;2.30;;;0.68;;
53287;SDS011;39172;45.550;12.072;2023-08-07T09:13:11;1.33;;;0.50;;
53287;SDS011;39172;45.550;12.072;2023-08-07T09:19:10;1.60;;;0.60;;
53287;SDS011;39172;45.550;12.072;2023-08-07T09:25:12;1.20;;;0.50;;
53287;SDS011;39172;45.550;12.072;2023-08-07T09:31:14;1.25;;;0.40;;
53287;SDS011;39172;45.550;12.072;2023-08-07T09:37:16;0.63;;;0.40;;
53287;SDS011;39172;45.550;12.072;2023-08-07T09:43:22;0.75;;;0.50;;
53287;SDS011;39172;45.550;12.072;2023-08-07T09:49:23;0.70;;;0.40;;
53287;SDS011;39172;45.550;12.072;2023-08-07T09:55:32;0.43;;;0.30;;
53287;SDS011;39172;45.550;12.072;2023-08-07T10:01:38;0.75;;;0.30;;
53287;SDS011;39172;45.550;12.072;2023-08-07T10:07:40;0.70;;;0.30;;
53287;SDS011;39172;45.550;12.072;2023-08-07T10:13:41;0.50;;;0.32;;
53287;SDS011;39172;45.550;12.072;2023-08-07T10:19:43;0.55;;;0.30;;
53287;SDS011;39172;45.550;12.072;2023-08-07T10:25:44;0.70;;;0.30;;
53287;SDS011;39172;45.550;12.072;2023-08-07T10:31:46;0.60;;;0.40;;
53287;SDS011;39172;45.550;12.072;2023-08-07T10:37:50;0.57;;;0.40;;
53287;SDS011;39172;45.550;12.072;2023-08-07T10:43:51;0.60;;;0.40;;
53287;SDS011;39172;45.550;12.072;2023-08-07T10:49:54;1.50;;;0.50;;
53287;SDS011;39172;45.550;12.072;2023-08-07T10:55:55;0.95;;;0.30;;
53287;SDS011;39172;45.550;12.072;2023-08-07T11:01:59;0.60;;;0.40;;
53287;SDS011;39172;45.550;12.072;2023-08-07T11:08:00;0.40;;;0.30;;
53287;SDS011;39172;45.550;12.072;2023-08-07T11:14:01;1.00;;;0.30;;
53287;SDS011;39172;45.550;12.072;2023-08-07T11:20:02;0.20;;;0.20;;
53287;SDS011;39172;45.550;12.072;2023-08-07T11:26:03;0.55;;;0.30;;
53287;SDS011;39172;45.550;12.072;2023-08-07T11:32:05;0.38;;;0.30;;
53287;SDS011;39172;45.550;12.072;2023-08-07T11:38:06;0.25;;;0.25;;
53287;SDS011;39172;45.550;12.072;2023-08-07T11:44:07;0.30;;;0.30;;
53287;SDS011;39172;45.550;12.072;2023-08-07T11:50:09;0.40;;;0.30;;
53287;SDS011;39172;45.550;12.072;2023-08-07T11:56:11;0.50;;;0.30;;
53287;SDS011;39172;45.550;12.072;2023-08-07T12:02:14;0.75;;;0.38;;
53287;SDS011;39172;45.550;12.072;2023-08-07T12:08:16;0.65;;;0.30;;
53287;SDS011;39172;45.550;12.072;2023-08-07T12:14:17;0.40;;;0.30;;
53287;SDS011;39172;45.550;12.072;2023-08-07T12:20:18;0.40;;;0.30;;
53287;SDS011;39172;45.550;12.072;2023-08-07T12:26:19;1.55;;;0.45;;
53287;SDS011;39172;45.550;12.072;2023-08-07T12:32:21;0.60;;;0.30;;
53287;SDS011;39172;45.550;12.072;2023-08-07T12:38:22;0.30;;;0.30;;
53287;SDS011;39172;45.550;12.072;2023-08-07T12:44:23;0.50;;;0.30;;
53287;SDS011;39172;45.550;12.072;2023-08-07T12:50:24;0.50;;;0.30;;
53287;SDS011;39172;45.550;12.072;2023-08-07T12:56:25;0.35;;;0.30;;
53287;SDS011;39172;45.550;12.072;2023-08-07T13:02:26;0.30;;;0.30;;
53287;SDS011;39172;45.550;12.072;2023-08-07T13:08:27;0.50;;;0.30;;
53287;SDS011;39172;45.550;12.072;2023-08-07T13:14:28;0.40;;;0.30;;
53287;SDS011;39172;45.550;12.072;2023-08-07T13:20:29;0.38;;;0.30;;
53287;SDS011;39172;45.550;12.072;2023-08-07T13:26:34;0.35;;;0.30;;
53287;SDS011;39172;45.550;12.072;2023-08-07T13:32:35;0.40;;;0.30;;
53287;SDS011;39172;45.550;12.072;2023-08-07T13:38:37;0.70;;;0.30;;
53287;SDS011;39172;45.550;12.072;2023-08-07T13:44:38;0.35;;;0.30;;
53287;SDS011;39172;45.550;12.072;2023-08-07T13:50:42;0.77;;;0.35;;
53287;SDS011;39172;45.550;12.072;2023-08-07T13:56:43;0.40;;;0.30;;
53287;SDS011;39172;45.550;12.072;2023-08-07T14:02:45;0.63;;;0.30;;
53287;SDS011;39172;45.550;12.072;2023-08-07T14:08:46;0.50;;;0.40;;
53287;SDS011;39172;45.550;12.072;2023-08-07T14:14:47;0.55;;;0.30;;
53287;SDS011;39172;45.550;12.072;2023-08-07T14:20:48;0.40;;;0.30;;
53287;SDS011;39172;45.550;12.072;2023-08-07T14:26:50;0.40;;;0.30;;
53287;SDS011;39172;45.550;12.072;2023-08-07T14:32:51;0.77;;;0.40;;
53287;SDS011;39172;45.550;12.072;2023-08-07T14:38:52;0.40;;;0.38;;
53287;SDS011;39172;45.550;12.072;2023-08-07T14:44:53;1.05;;;0.40;;
53287;SDS011;39172;45.550;12.072;2023-08-07T14:50:53;0.57;;;0.40;;
53287;SDS011;39172;45.550;12.072;2023-08-07T14:56:57;0.50;;;0.40;;
53287;SDS011;39172;45.550;12.072;2023-08-07T15:02:59;1.38;;;0.63;;
53287;SDS011;39172;45.550;12.072;2023-08-07T15:09:03;3.15;;;0.70;;
53287;SDS011;39172;45.550;12.072;2023-08-07T15:15:04;0.60;;;0.50;;
53287;SDS011;39172;45.550;12.072;2023-08-07T15:21:06;0.70;;;0.50;;
53287;SDS011;39172;45.550;12.072;2023-08-07T15:27:07;1.00;;;0.70;;
53287;SDS011;39172;45.550;12.072;2023-08-07T15:33:09;0.90;;;0.60;;
53287;SDS011;39172;45.550;12.072;2023-08-07T15:39:10;0.40;;;0.30;;
53287;SDS011;39172;45.550;12.072;2023-08-07T15:45:12;1.08;;;0.50;;
53287;SDS011;39172;45.550;12.072;2023-08-07T15:51:13;0.70;;;0.50;;
53287;SDS011;39172;45.550;12.072;2023-08-07T15:57:14;0.50;;;0.40;;
53287;SDS011;39172;45.550;12.072;2023-08-07T16:03:15;0.52;;;0.40;;
53287;SDS011;39172;45.550;12.072;2023-08-07T16:09:17;0.73;;;0.40;;
53287;SDS011;39172;45.550;12.072;2023-08-07T16:15:19;0.57;;;0.40;;
53287;SDS011;39172;45.550;12.072;2023-08-07T16:21:21;0.50;;;0.30;;
53287;SDS011;39172;45.550;12.072;2023-08-07T16:27:22;0.68;;;0.40;;
53287;SDS011;39172;45.550;12.072;2023-08-07T16:33:23;0.88;;;0.40;;
53287;SDS011;39172;45.550;12.072;2023-08-07T16:39:24;1.20;;;0.60;;
53287;SDS011;39172;45.550;12.072;2023-08-07T16:45:24;1.58;;;0.55;;
53287;SDS011;39172;45.550;12.072;2023-08-07T16:51:25;0.95;;;0.68;;
53287;SDS011;39172;45.550;12.072;2023-08-07T16:57:26;1.33;;;0.60;;
53287;SDS011;39172;45.550;12.072;2023-08-07T17:03:27;0.95;;;0.60;;
53287;SDS011;39172;45.550;12.072;2023-08-07T17:09:30;0.68;;;0.40;;
53287;SDS011;39172;45.550;12.072;2023-08-07T17:15:31;0.55;;;0.45;;
53287;SDS011;39172;45.550;12.072;2023-08-07T17:21:32;0.70;;;0.43;;
53287;SDS011;39172;45.550;12.072;2023-08-07T17:27:33;1.40;;;0.65;;
53287;SDS011;39172;45.550;12.072;2023-08-07T17:33:34;0.90;;;0.68;;
53287;SDS011;39172;45.550;12.072;2023-08-07T17:39:35;1.10;;;0.80;;
53287;SDS011;39172;45.550;12.072;2023-08-07T17:45:36;1.35;;;0.85;;
53287;SDS011;39172;45.550;12.072;2023-08-07T17:51:37;1.13;;;0.73;;
53287;SDS011;39172;45.550;12.072;2023-08-07T17:57:39;1.50;;;0.88;;
53287;SDS011;39172;45.550;12.072;2023-08-07T18:03:40;1.08;;;0.80;;
53287;SDS011;39172;45.550;12.072;2023-08-07T18:09:41;1.42;;;0.63;;
53287;SDS011;39172;45.550;12.072;2023-08-07T18:15:42;0.73;;;0.50;;
53287;SDS011;39172;45.550;12.072;2023-08-07T18:21:43;0.70;;;0.50;;
53287;SDS011;39172;45.550;12.072;2023-08-07T18:27:44;0.95;;;0.60;;
53287;SDS011;39172;45.550;12.072;2023-08-07T18:33:46;0.88;;;0.60;;
53287;SDS011;39172;45.550;12.072;2023-08-07T18:39:46;0.80;;;0.57;;
53287;SDS011;39172;45.550;12.072;2023-08-07T18:45:49;1.10;;;0.60;;
53287;SDS011;39172;45.550;12.072;2023-08-07T18:51:50;0.90;;;0.52;;
53287;SDS011;39172;45.550;12.072;2023-08-07T18:57:51;0.70;;;0.50;;
53287;SDS011;39172;45.550;12.072;2023-08-07T19:03:52;0.77;;;0.40;;
53287;SDS011;39172;45.550;12.072;2023-08-07T19:09:52;0.70;;;0.50;;
53287;SDS011;39172;45.550;12.072;2023-08-07T19:15:54;0.60;;;0.50;;
53287;SDS011;39172;45.550;12.072;2023-08-07T19:21:55;0.90;;;0.70;;
53287;SDS011;39172;45.550;12.072;2023-08-07T19:27:57;1.20;;;0.80;;
53287;SDS011;39172;45.550;12.072;2023-08-07T19:33:58;0.80;;;0.60;;
53287;SDS011;39172;45.550;12.072;2023-08-07T19:39:59;0.95;;;0.68;;
53287;SDS011;39172;45.550;12.072;2023-08-07T19:46:07;1.00;;;0.80;;
53287;SDS011;39172;45.550;12.072;2023-08-07T19:52:08;0.90;;;0.68;;
53287;SDS011;39172;45.550;12.072;2023-08-07T19:58:09;1.40;;;0.82;;
53287;SDS011;39172;45.550;12.072;2023-08-07T20:04:10;1.25;;;0.80;;
53287;SDS011;39172;45.550;12.072;2023-08-07T20:10:14;0.98;;;0.80;;
53287;SDS011;39172;45.550;12.072;2023-08-07T20:16:21;1.00;;;0.80;;
53287;SDS011;39172;45.550;12.072;2023-08-07T20:22:23;1.60;;;0.75;;
53287;SDS011;39172;45.550;12.072;2023-08-07T20:28:24;1.00;;;0.70;;
53287;SDS011;39172;45.550;12.072;2023-08-07T20:34:25;1.48;;;1.05;;
53287;SDS011;39172;45.550;12.072;2023-08-07T20:40:26;1.45;;;1.00;;
53287;SDS011;39172;45.550;12.072;2023-08-07T20:46:27;1.15;;;0.82;;
53287;SDS011;39172;45.550;12.072;2023-08-07T20:52:28;1.13;;;0.75;;
53287;SDS011;39172;45.550;12.072;2023-08-07T20:58:29;1.30;;;0.80;;
53287;SDS011;39172;45.550;12.072;2023-08-07T21:04:34;1.75;;;1.02;;
53287;SDS011;39172;45.550;12.072;2023-08-07T21:10:35;1.63;;;1.15;;
53287;SDS011;39172;45.550;12.072;2023-08-07T21:16:36;1.10;;;0.90;;
53287;SDS011;39172;45.550;12.072;2023-08-07T21:22:37;1.20;;;0.80;;
53287;SDS011;39172;45.550;12.072;2023-08-07T21:28:38;1.52;;;0.90;;
53287;SDS011;39172;45.550;12.072;2023-08-07T21:34:39;1.42;;;1.08;;
53287;SDS011;39172;45.550;12.072;2023-08-07T21:40:40;1.48;;;0.93;;
53287;SDS011;39172;45.550;12.072;2023-08-07T21:46:41;2.08;;;1.20;;
53287;SDS011;39172;45.550;12.072;2023-08-07T21:52:44;1.52;;;1.10;;
53287;SDS011;39172;45.550;12.072;2023-08-07T21:58:45;1.30;;;0.90;;
53287;SDS011;39172;45.550;12.072;2023-08-07T22:04:46;1.70;;;1.20;;
53287;SDS011;39172;45.550;12.072;2023-08-07T22:10:47;1.58;;;1.20;;
53287;SDS011;39172;45.550;12.072;2023-08-07T22:16:48;1.52;;;1.20;;
53287;SDS011;39172;45.550;12.072;2023-08-07T22:22:52;3.10;;;1.30;;
53287;SDS011;39172;45.550;12.072;2023-08-07T22:28:53;2.10;;;1.20;;
53287;SDS011;39172;45.550;12.072;2023-08-07T22:34:54;1.50;;;1.10;;
53287;SDS011;39172;45.550;12.072;2023-08-07T22:40:56;1.20;;;1.00;;
53287;SDS011;39172;45.550;12.072;2023-08-07T22:46:57;1.50;;;1.00;;
53287;SDS011;39172;45.550;12.072;2023-08-07T22:53:02;1.63;;;1.00;;
53287;SDS011;39172;45.550;12.072;2023-08-07T22:59:04;1.58;;;0.98;;
53287;SDS011;39172;45.550;12.072;2023-08-07T23:05:06;1.80;;;1.10;;
53287;SDS011;39172;45.550;12.072;2023-08-07T23:11:08;1.25;;;1.00;;
53287;SDS011;39172;45.550;12.072;2023-08-07T23:17:09;1.25;;;0.82;;
53287;SDS011;39172;45.550;12.072;2023-08-07T23:23:10;1.05;;;0.70;;
53287;SDS011;39172;45.550;12.072;2023-08-07T23:29:11;0.90;;;0.60;;
53287;SDS011;39172;45.550;12.072;2023-08-07T23:35:12;1.02;;;0.80;;
53287;SDS011;39172;45.550;12.072;2023-08-07T23:41:13;1.00;;;0.70;;
53287;SDS011;39172;45.550;12.072;2023-08-07T23:47:14;1.13;;;0.60;;
53287;SDS011;39172;45.550;12.072;2023-08-07T23:53:15;0.80;;;0.57;;
53287;SDS011;39172;45.550;12.072;2023-08-07T23:59:16;0.60;;;0.50;;
